Time;durP1;ratioP1;P1;durP2;ratioP2;P2;SDS_P1;SDS_P2;PMS_P1;PMS_P2;Temp;Humidity;BMP_temperature;BMP_pressure;BME280_temperature;BME280_humidity;BME280_pressure;Samples;Min_cycle;Max_cycle;Signal;HPM_P1;HPM_P2
2022/11/27 00:01:24;;;;;;;120.97;112.35;;;;;;;;;;10244005;28;20156;-63
2022/11/27 00:06:22;;;;;;;124.93;115.65;;;;;;;;;;10252285;28;20044;-63
2022/11/27 00:11:19;;;;;;;120.25;111.35;;;;;;;;;;10245154;28;20727;-64
2022/11/27 00:16:16;;;;;;;119.43;110.35;;;;;;;;;;10251935;28;20048;-63
2022/11/27 00:21:14;;;;;;;116.55;108.10;;;;;;;;;;10258406;28;20041;-63
2022/11/27 00:26:10;;;;;;;121.22;112.75;;;;;;;;;;10244271;28;20068;-63
2022/11/27 00:31:11;;;;;;;124.72;115.63;;;;;;;;;;10252825;28;20502;-63
2022/11/27 00:36:07;;;;;;;123.40;114.63;;;;;;;;;;10242951;28;20041;-63
2022/11/27 00:41:05;;;;;;;117.45;108.70;;;;;;;;;;10242188;28;20419;-64
2022/11/27 00:46:01;;;;;;;122.82;114.18;;;;;;;;;;10241164;28;20389;-64
2022/11/27 00:50:58;;;;;;;118.78;109.57;;;;;;;;;;10233263;28;20494;-64
2022/11/27 00:55:55;;;;;;;124.82;115.47;;;;;;;;;;10251809;28;20136;-64
2022/11/27 01:00:58;;;;;;;125.88;116.47;;;;;;;;;;10252325;28;20046;-64
2022/11/27 01:05:55;;;;;;;121.63;112.60;;;;;;;;;;10238569;28;20554;-63
2022/11/27 01:10:55;;;;;;;119.38;110.93;;;;;;;;;;10236525;28;20526;-63
2022/11/27 01:15:58;;;;;;;121.05;112.38;;;;;;;;;;10233542;28;20486;-63
2022/11/27 01:20:55;;;;;;;115.47;107.55;;;;;;;;;;10237798;28;20049;-63
2022/11/27 01:25:52;;;;;;;121.97;113.55;;;;;;;;;;10242266;28;20099;-63
2022/11/27 01:30:48;;;;;;;122.78;114.32;;;;;;;;;;10238041;28;20053;-63
2022/11/27 01:36:11;;;;;;;123.05;114.65;;;;;;;;;;10243213;28;20046;-63
2022/11/27 01:41:18;;;;;;;123.75;115.55;;;;;;;;;;10245493;28;20053;-63
2022/11/27 01:46:24;;;;;;;117.65;108.95;;;;;;;;;;10230244;28;20042;-63
2022/11/27 01:51:21;;;;;;;122.18;113.72;;;;;;;;;;10253093;28;20049;-63
2022/11/27 01:56:18;;;;;;;121.60;113.20;;;;;;;;;;10246081;28;20045;-64
2022/11/27 02:01:14;;;;;;;116.70;108.32;;;;;;;;;;10242862;28;20049;-63
2022/11/27 02:06:11;;;;;;;119.85;111.60;;;;;;;;;;10250409;28;20052;-64
2022/11/27 02:11:26;;;;;;;126.43;118.10;;;;;;;;;;10240715;28;20041;-62
2022/11/27 02:16:23;;;;;;;125.32;116.93;;;;;;;;;;10245475;28;20091;-62
2022/11/27 02:21:32;;;;;;;127.78;119.88;;;;;;;;;;10240243;28;20120;-63
2022/11/27 02:26:55;;;;;;;128.25;119.95;;;;;;;;;;10236205;28;20092;-63
2022/11/27 02:31:57;;;;;;;129.70;121.87;;;;;;;;;;10242636;28;20140;-63
2022/11/27 02:37:02;;;;;;;122.93;114.85;;;;;;;;;;10251179;28;20121;-62
2022/11/27 02:42:00;;;;;;;125.57;116.97;;;;;;;;;;10249939;28;20072;-63
2022/11/27 02:46:57;;;;;;;123.63;114.93;;;;;;;;;;10245158;28;20045;-63
2022/11/27 02:51:56;;;;;;;122.15;113.90;;;;;;;;;;10247677;28;20589;-63
2022/11/27 02:56:53;;;;;;;122.30;114.55;;;;;;;;;;10245957;28;20136;-63
2022/11/27 03:01:52;;;;;;;127.20;118.63;;;;;;;;;;10238187;28;20041;-63
2022/11/27 03:06:51;;;;;;;125.80;117.13;;;;;;;;;;10251307;28;20553;-63
2022/11/27 03:11:47;;;;;;;123.88;115.88;;;;;;;;;;10254027;28;20474;-63
2022/11/27 03:17:04;;;;;;;120.43;112.00;;;;;;;;;;10246638;28;20046;-63
2022/11/27 03:22:01;;;;;;;124.70;114.85;;;;;;;;;;10247708;28;20042;-63
2022/11/27 03:26:57;;;;;;;122.13;113.68;;;;;;;;;;10258621;28;20536;-63
2022/11/27 03:31:54;;;;;;;120.15;111.93;;;;;;;;;;10255083;28;20056;-63
2022/11/27 03:36:51;;;;;;;121.45;113.65;;;;;;;;;;10254658;28;20422;-64
2022/11/27 03:42:04;;;;;;;118.60;110.13;;;;;;;;;;10250411;28;20056;-63
2022/11/27 03:47:24;;;;;;;117.80;109.72;;;;;;;;;;10248988;28;20128;-64
2022/11/27 03:52:34;;;;;;;120.22;111.38;;;;;;;;;;10252675;28;20044;-63
2022/11/27 03:57:36;;;;;;;120.70;112.82;;;;;;;;;;10236198;28;20044;-63
2022/11/27 04:02:40;;;;;;;118.53;110.37;;;;;;;;;;10242616;28;20041;-62
2022/11/27 04:07:37;;;;;;;118.88;110.32;;;;;;;;;;10239885;28;20136;-63
2022/11/27 04:12:33;;;;;;;119.50;111.20;;;;;;;;;;10246069;28;20042;-62
2022/11/27 04:17:29;;;;;;;124.47;115.80;;;;;;;;;;10236016;28;20053;-63
2022/11/27 04:22:26;;;;;;;119.47;111.38;;;;;;;;;;10253418;28;20041;-62
2022/11/27 04:27:22;;;;;;;120.80;112.32;;;;;;;;;;10249782;28;20052;-62
2022/11/27 04:32:18;;;;;;;121.22;112.95;;;;;;;;;;10252009;28;20071;-62
2022/11/27 04:37:14;;;;;;;121.30;112.93;;;;;;;;;;10245397;28;20407;-64
2022/11/27 04:42:11;;;;;;;119.18;111.22;;;;;;;;;;10237862;28;20115;-63
2022/11/27 04:47:07;;;;;;;126.40;117.40;;;;;;;;;;10240452;28;20132;-63
2022/11/27 04:52:04;;;;;;;122.93;113.85;;;;;;;;;;10246418;28;20048;-63
2022/11/27 04:57:00;;;;;;;125.18;116.88;;;;;;;;;;10238708;28;20056;-64
2022/11/27 05:01:56;;;;;;;131.57;122.78;;;;;;;;;;10245601;28;20052;-63
2022/11/27 05:06:53;;;;;;;129.07;120.35;;;;;;;;;;10238608;28;20104;-63
2022/11/27 05:11:49;;;;;;;127.53;118.85;;;;;;;;;;10250878;28;20392;-63
2022/11/27 05:16:46;;;;;;;130.65;121.55;;;;;;;;;;10244500;28;20048;-63
2022/11/27 05:21:43;;;;;;;128.43;119.63;;;;;;;;;;10243737;28;20046;-63
2022/11/27 05:26:40;;;;;;;129.75;121.18;;;;;;;;;;10235654;28;20387;-64
2022/11/27 05:31:36;;;;;;;133.60;124.28;;;;;;;;;;10239623;28;20048;-63
2022/11/27 05:36:34;;;;;;;129.65;120.68;;;;;;;;;;10239572;28;20127;-63
2022/11/27 05:41:30;;;;;;;133.20;123.53;;;;;;;;;;10232531;28;20045;-63
2022/11/27 05:46:26;;;;;;;126.50;117.55;;;;;;;;;;10233544;28;20499;-63
2022/11/27 05:51:23;;;;;;;129.18;119.90;;;;;;;;;;10246444;28;20124;-64
2022/11/27 05:56:19;;;;;;;127.00;118.20;;;;;;;;;;10245983;28;20045;-63
2022/11/27 06:01:16;;;;;;;123.25;115.03;;;;;;;;;;10237070;28;20045;-63
2022/11/27 06:06:14;;;;;;;119.72;111.15;;;;;;;;;;10237337;28;20037;-63
2022/11/27 06:11:18;;;;;;;116.90;108.90;;;;;;;;;;10238547;28;20053;-63
2022/11/27 06:16:19;;;;;;;111.90;104.00;;;;;;;;;;10230894;28;20054;-63
2022/11/27 06:21:15;;;;;;;108.85;101.75;;;;;;;;;;10244621;28;20040;-63
2022/11/27 06:26:13;;;;;;;111.78;104.13;;;;;;;;;;10246869;28;20045;-63
2022/11/27 06:31:11;;;;;;;104.82;97.10;;;;;;;;;;10252104;28;20128;-62
2022/11/27 06:36:13;;;;;;;105.93;98.28;;;;;;;;;;10248982;28;20677;-62
2022/11/27 06:41:11;;;;;;;112.00;104.65;;;;;;;;;;10247964;28;20137;-62
2022/11/27 06:46:10;;;;;;;110.43;103.28;;;;;;;;;;10239085;28;20651;-62
2022/11/27 06:51:07;;;;;;;109.93;101.90;;;;;;;;;;10246278;28;20045;-63
2022/11/27 06:56:07;;;;;;;107.20;99.65;;;;;;;;;;10232235;28;20048;-63
2022/11/27 07:01:08;;;;;;;109.90;102.45;;;;;;;;;;10236313;28;20045;-65
2022/11/27 07:06:06;;;;;;;112.55;104.43;;;;;;;;;;10238519;28;20098;-64
2022/11/27 07:11:03;;;;;;;108.22;100.93;;;;;;;;;;10234630;28;20122;-63
2022/11/27 07:16:00;;;;;;;108.05;100.63;;;;;;;;;;10246496;28;20045;-63
2022/11/27 07:20:57;;;;;;;106.18;99.05;;;;;;;;;;10235146;28;20045;-62
2022/11/27 07:25:53;;;;;;;107.93;100.47;;;;;;;;;;10238634;28;20041;-64
2022/11/27 07:30:53;;;;;;;108.25;100.45;;;;;;;;;;10236421;28;20045;-63
2022/11/27 07:35:56;;;;;;;112.93;104.95;;;;;;;;;;10235411;28;20136;-63
2022/11/27 07:40:52;;;;;;;;;;;;;;;;;;10238537;28;20061;-63
2022/11/27 07:45:49;;;;;;;110.50;103.13;;;;;;;;;;10247528;28;19927;-65
2022/11/27 07:50:45;;;;;;;110.03;102.32;;;;;;;;;;10254241;28;20041;-63
2022/11/27 07:55:41;;;;;;;117.32;109.30;;;;;;;;;;10248512;28;20088;-63
2022/11/27 08:00:38;;;;;;;114.35;106.50;;;;;;;;;;10252309;28;20442;-63
2022/11/27 08:05:35;;;;;;;110.30;102.93;;;;;;;;;;10240519;28;20045;-63
2022/11/27 08:10:35;;;;;;;113.20;105.43;;;;;;;;;;10239784;28;20038;-63
2022/11/27 08:15:31;;;;;;;115.40;107.88;;;;;;;;;;10229035;28;20068;-64
2022/11/27 08:20:27;;;;;;;117.97;110.05;;;;;;;;;;10233499;28;20415;-64
2022/11/27 08:25:24;;;;;;;122.03;113.63;;;;;;;;;;10238143;28;20144;-64
2022/11/27 08:30:22;;;;;;;118.85;110.80;;;;;;;;;;10230592;28;20132;-64
2022/11/27 08:35:19;;;;;;;114.93;106.53;;;;;;;;;;10229929;28;20152;-64
2022/11/27 08:40:15;;;;;;;120.68;112.97;;;;;;;;;;10225446;28;20099;-64
2022/11/27 08:45:12;;;;;;;125.72;117.95;;;;;;;;;;10230555;28;20125;-64
2022/11/27 08:50:08;;;;;;;119.97;112.35;;;;;;;;;;10230653;28;20052;-64
2022/11/27 08:55:05;;;;;;;120.90;113.43;;;;;;;;;;10229805;28;20133;-64
2022/11/27 09:00:01;;;;;;;115.30;108.22;;;;;;;;;;10230518;28;20049;-64
2022/11/27 09:04:57;;;;;;;113.35;106.10;;;;;;;;;;10233504;28;20057;-64
2022/11/27 09:09:53;;;;;;;110.85;103.90;;;;;;;;;;10229983;28;20099;-64
2022/11/27 09:14:50;;;;;;;108.10;101.40;;;;;;;;;;10221734;28;20419;-70
2022/11/27 09:19:46;;;;;;;102.05;95.80;;;;;;;;;;10218218;28;20045;-69
2022/11/27 09:24:43;;;;;;;108.95;102.43;;;;;;;;;;10220109;28;20045;-69
2022/11/27 09:29:39;;;;;;;100.80;94.40;;;;;;;;;;10218496;28;20041;-67
2022/11/27 09:34:35;;;;;;;95.43;89.40;;;;;;;;;;10216266;28;20526;-67
2022/11/27 09:39:33;;;;;;;83.15;77.75;;;;;;;;;;10217649;28;20133;-67
2022/11/27 09:44:44;;;;;;;86.20;80.70;;;;;;;;;;10213239;28;20052;-67
2022/11/27 09:49:42;;;;;;;81.70;76.07;;;;;;;;;;10233564;28;20146;-67
2022/11/27 09:54:46;;;;;;;87.80;82.13;;;;;;;;;;10218129;28;20091;-67
2022/11/27 09:59:49;;;;;;;86.53;81.05;;;;;;;;;;10214905;28;20041;-67
2022/11/27 10:04:46;;;;;;;74.97;70.35;;;;;;;;;;10215758;28;20060;-65
2022/11/27 10:10:17;;;;;;;68.95;64.43;;;;;;;;;;10221274;28;20057;-66
2022/11/27 10:15:14;;;;;;;66.15;61.85;;;;;;;;;;10220394;28;20041;-66
2022/11/27 10:20:11;;;;;;;60.97;56.58;;;;;;;;;;10218874;28;20069;-66
2022/11/27 10:25:08;;;;;;;59.40;55.15;;;;;;;;;;10224929;28;20053;-67
2022/11/27 10:30:14;;;;;;;58.17;54.17;;;;;;;;;;10222723;28;20047;-67
2022/11/27 10:35:13;;;;;;;58.92;54.85;;;;;;;;;;10225069;28;20128;-66
2022/11/27 10:40:10;;;;;;;58.55;53.90;;;;;;;;;;10215595;28;20156;-67
2022/11/27 10:45:16;;;;;;;53.10;49.35;;;;;;;;;;10215984;28;20056;-67
2022/11/27 10:50:13;;;;;;;52.47;48.60;;;;;;;;;;10219970;28;20508;-67
2022/11/27 10:55:14;;;;;;;49.10;45.25;;;;;;;;;;10229970;28;20049;-67
2022/11/27 11:00:13;;;;;;;46.67;43.42;;;;;;;;;;10227153;28;20549;-67
2022/11/27 11:05:09;;;;;;;44.45;41.03;;;;;;;;;;10236901;28;20053;-67
2022/11/27 11:10:26;;;;;;;43.80;40.53;;;;;;;;;;10229507;28;20053;-67
2022/11/27 11:15:22;;;;;;;41.00;37.97;;;;;;;;;;10227449;28;20053;-71
2022/11/27 11:20:22;;;;;;;39.88;36.97;;;;;;;;;;10237302;28;20128;-69
2022/11/27 11:25:19;;;;;;;40.25;37.05;;;;;;;;;;10228615;28;20122;-71
2022/11/27 11:30:20;;;;;;;41.33;38.03;;;;;;;;;;10234875;28;20817;-71
2022/11/27 11:35:35;;;;;;;41.67;38.42;;;;;;;;;;10232754;28;20048;-70
2022/11/27 11:40:33;;;;;;;41.75;38.83;;;;;;;;;;10236743;28;20033;-70
2022/11/27 11:45:30;;;;;;;41.75;37.83;;;;;;;;;;10230705;28;20041;-70
2022/11/27 11:50:35;;;;;;;42.75;39.28;;;;;;;;;;10227977;28;20045;-70
2022/11/27 11:55:51;;;;;;;44.58;41.03;;;;;;;;;;10223715;28;20045;-70
2022/11/27 12:00:48;;;;;;;41.03;37.75;;;;;;;;;;10241468;28;20045;-71
2022/11/27 12:06:04;;;;;;;41.95;38.72;;;;;;;;;;10229970;28;20060;-69
2022/11/27 12:11:07;;;;;;;42.58;39.03;;;;;;;;;;10227722;28;20042;-69
2022/11/27 12:16:05;;;;;;;;;;;;;;;;;;10235340;28;20045;-69
2022/11/27 12:21:14;;;;;;;41.42;38.28;;;;;;;;;;10228562;28;19943;-69
2022/11/27 12:26:29;;;;;;;40.22;36.90;;;;;;;;;;10229802;28;20138;-69
2022/11/27 12:31:44;;;;;;;40.03;36.97;;;;;;;;;;10225466;28;20044;-69
2022/11/27 12:36:53;;;;;;;38.53;35.33;;;;;;;;;;10227238;28;20527;-69
2022/11/27 12:41:58;;;;;;;36.13;33.42;;;;;;;;;;10232922;28;20549;-69
2022/11/27 12:46:58;;;;;;;37.55;34.70;;;;;;;;;;10235889;28;20051;-69
2022/11/27 12:52:01;;;;;;;39.22;36.28;;;;;;;;;;10222026;28;20046;-69
2022/11/27 12:57:01;;;;;;;37.63;34.70;;;;;;;;;;10233955;28;20049;-69
2022/11/27 13:02:16;;;;;;;39.40;36.33;;;;;;;;;;10231067;28;20049;-69
2022/11/27 13:07:37;;;;;;;41.03;37.55;;;;;;;;;;10222621;28;20065;-71
2022/11/27 13:12:41;;;;;;;40.25;37.10;;;;;;;;;;10222914;28;20052;-69
2022/11/27 13:17:40;;;;;;;42.53;39.08;;;;;;;;;;10229323;28;20041;-69
2022/11/27 13:22:36;;;;;;;42.08;38.83;;;;;;;;;;10228146;28;20064;-69
2022/11/27 13:27:34;;;;;;;40.10;36.85;;;;;;;;;;10234921;28;20091;-69
2022/11/27 13:32:40;;;;;;;42.65;39.33;;;;;;;;;;10225759;28;20056;-70
2022/11/27 13:37:39;;;;;;;42.47;39.47;;;;;;;;;;10242159;28;20045;-70
2022/11/27 13:42:41;;;;;;;46.85;42.90;;;;;;;;;;10220919;28;20449;-70
2022/11/27 13:47:40;;;;;;;46.50;42.92;;;;;;;;;;10218395;28;20529;-69
2022/11/27 13:52:37;;;;;;;45.25;41.95;;;;;;;;;;10225051;28;20041;-70
2022/11/27 13:57:33;;;;;;;45.03;41.72;;;;;;;;;;10224452;28;20136;-69
2022/11/27 14:02:39;;;;;;;46.28;42.80;;;;;;;;;;10222966;28;20136;-71
2022/11/27 14:07:40;;;;;;;48.17;44.60;;;;;;;;;;10222792;28;20103;-70
2022/11/27 14:12:37;;;;;;;46.97;43.70;;;;;;;;;;10222848;28;20383;-69
2022/11/27 14:17:35;;;;;;;46.33;42.78;;;;;;;;;;10224314;28;20137;-70
2022/11/27 14:22:33;;;;;;;47.25;43.80;;;;;;;;;;10221961;28;20156;-70
2022/11/27 14:27:55;;;;;;;47.17;43.75;;;;;;;;;;10227759;28;20103;-69
2022/11/27 14:32:52;;;;;;;46.08;42.58;;;;;;;;;;10230526;28;20137;-69
2022/11/27 14:37:48;;;;;;;46.33;43.33;;;;;;;;;;10231455;28;20060;-69
2022/11/27 14:42:45;;;;;;;47.70;44.28;;;;;;;;;;10246047;28;20054;-69
2022/11/27 14:47:45;;;;;;;47.53;44.20;;;;;;;;;;10244527;28;20045;-69
2022/11/27 14:52:42;;;;;;;49.80;45.88;;;;;;;;;;10238873;28;20168;-69
2022/11/27 14:57:39;;;;;;;49.33;45.63;;;;;;;;;;10227154;28;21518;-69
2022/11/27 15:02:35;;;;;;;51.20;47.58;;;;;;;;;;10225014;28;20516;-69
2022/11/27 15:07:33;;;;;;;53.08;49.45;;;;;;;;;;10227701;28;20041;-69
2022/11/27 15:12:44;;;;;;;54.60;51.17;;;;;;;;;;10225769;28;20421;-69
2022/11/27 15:17:43;;;;;;;55.35;51.42;;;;;;;;;;10229372;28;20080;-69
2022/11/27 15:22:47;;;;;;;54.75;50.90;;;;;;;;;;10220898;28;20041;-69
2022/11/27 15:27:44;;;;;;;56.80;52.65;;;;;;;;;;10224478;28;20099;-69
2022/11/27 15:32:49;;;;;;;54.90;51.10;;;;;;;;;;10221616;28;20046;-69
2022/11/27 15:37:46;;;;;;;56.30;52.35;;;;;;;;;;10229934;28;20049;-70
2022/11/27 15:42:42;;;;;;;58.83;54.75;;;;;;;;;;10230281;28;20136;-70
2022/11/27 15:47:40;;;;;;;59.13;55.25;;;;;;;;;;10230050;28;20588;-72
2022/11/27 15:52:36;;;;;;;62.72;58.72;;;;;;;;;;10251419;28;20048;-72
2022/11/27 15:57:32;;;;;;;67.22;62.67;;;;;;;;;;10233789;28;20064;-70
2022/11/27 16:02:29;;;;;;;60.70;56.47;;;;;;;;;;10257339;28;20050;-70
2022/11/27 16:07:26;;;;;;;66.32;62.20;;;;;;;;;;10230021;28;20425;-69
2022/11/27 16:12:22;;;;;;;65.38;60.80;;;;;;;;;;10237343;28;20033;-69
2022/11/27 16:17:18;;;;;;;68.45;63.80;;;;;;;;;;10232164;28;20045;-69
2022/11/27 16:22:15;;;;;;;67.35;62.92;;;;;;;;;;10236315;28;20156;-69
2022/11/27 16:27:11;;;;;;;64.90;60.63;;;;;;;;;;10213559;28;20057;-69
2022/11/27 16:32:07;;;;;;;65.20;61.05;;;;;;;;;;10229455;28;20404;-69
2022/11/27 16:37:04;;;;;;;64.05;59.83;;;;;;;;;;10236193;28;20065;-69
2022/11/27 16:42:00;;;;;;;66.70;62.00;;;;;;;;;;10245474;28;20555;-69
2022/11/27 16:46:56;;;;;;;62.13;57.95;;;;;;;;;;10233564;28;20723;-69
2022/11/27 16:51:53;;;;;;;59.00;54.90;;;;;;;;;;10245073;28;20096;-69
2022/11/27 16:56:49;;;;;;;58.90;54.83;;;;;;;;;;10243989;28;20814;-69
2022/11/27 17:01:45;;;;;;;56.47;52.38;;;;;;;;;;10247875;28;20045;-69
2022/11/27 17:06:42;;;;;;;55.67;51.97;;;;;;;;;;10239720;28;20050;-69
2022/11/27 17:11:42;;;;;;;53.28;49.75;;;;;;;;;;10243104;28;20130;-69
2022/11/27 17:16:40;;;;;;;54.22;50.35;;;;;;;;;;10236169;28;20042;-69
2022/11/27 17:21:36;;;;;;;51.65;48.15;;;;;;;;;;10241653;28;20124;-69
2022/11/27 17:26:34;;;;;;;51.55;48.03;;;;;;;;;;10242571;28;20046;-69
2022/11/27 17:31:35;;;;;;;54.80;50.85;;;;;;;;;;10223890;28;20041;-72
2022/11/27 17:36:32;;;;;;;52.65;48.67;;;;;;;;;;10232572;28;20049;-72
2022/11/27 17:41:34;;;;;;;51.53;48.03;;;;;;;;;;10220620;28;20037;-72
2022/11/27 17:46:31;;;;;;;52.17;48.30;;;;;;;;;;10233523;28;20429;-72
2022/11/27 17:51:28;;;;;;;50.35;46.72;;;;;;;;;;10234267;28;20482;-72
2022/11/27 17:56:25;;;;;;;47.53;43.97;;;;;;;;;;10235079;28;20069;-74
2022/11/27 18:01:22;;;;;;;48.58;45.00;;;;;;;;;;10242290;28;20442;-72
2022/11/27 18:06:19;;;;;;;48.55;45.10;;;;;;;;;;10232358;28;20071;-72
2022/11/27 18:11:17;;;;;;;45.85;42.25;;;;;;;;;;10231331;28;20044;-72
2022/11/27 18:16:15;;;;;;;44.47;40.80;;;;;;;;;;10228986;28;20048;-72
2022/11/27 18:21:12;;;;;;;44.55;41.10;;;;;;;;;;10243339;28;20537;-72
2022/11/27 18:26:15;;;;;;;46.67;43.42;;;;;;;;;;10237673;28;20045;-71
2022/11/27 18:31:13;;;;;;;43.03;39.92;;;;;;;;;;10248912;28;20050;-72
2022/11/27 18:36:10;;;;;;;46.10;42.28;;;;;;;;;;10236766;28;20052;-72
2022/11/27 18:41:12;;;;;;;45.55;42.13;;;;;;;;;;10234879;28;20120;-72
2022/11/27 18:46:09;;;;;;;45.75;42.05;;;;;;;;;;10241420;28;20048;-72
2022/11/27 18:51:06;;;;;;;45.58;42.10;;;;;;;;;;10243248;28;20046;-72
2022/11/27 18:56:03;;;;;;;49.90;46.25;;;;;;;;;;10237334;28;20134;-72
2022/11/27 19:01:00;;;;;;;45.92;42.33;;;;;;;;;;10238531;28;20037;-72
2022/11/27 19:05:58;;;;;;;49.83;46.25;;;;;;;;;;10236478;28;20540;-72
2022/11/27 19:10:59;;;;;;;53.70;49.50;;;;;;;;;;10232884;28;20073;-72
2022/11/27 19:15:55;;;;;;;53.10;49.08;;;;;;;;;;10243257;28;20045;-72
2022/11/27 19:20:53;;;;;;;50.42;46.58;;;;;;;;;;10237742;28;20053;-71
2022/11/27 19:25:50;;;;;;;51.75;47.70;;;;;;;;;;10239243;28;20528;-71
2022/11/27 19:30:46;;;;;;;50.38;46.63;;;;;;;;;;10240495;28;20056;-73
2022/11/27 19:35:42;;;;;;;52.00;48.15;;;;;;;;;;10240606;28;20053;-72
2022/11/27 19:40:40;;;;;;;48.90;45.20;;;;;;;;;;10231856;28;20060;-72
2022/11/27 19:45:36;;;;;;;50.13;46.33;;;;;;;;;;10237001;28;20059;-72
2022/11/27 19:50:33;;;;;;;51.30;47.65;;;;;;;;;;10244842;28;20484;-72
2022/11/27 19:55:29;;;;;;;51.25;47.30;;;;;;;;;;10244572;28;20463;-72
2022/11/27 20:00:26;;;;;;;50.33;46.63;;;;;;;;;;10240789;28;20072;-71
2022/11/27 20:05:22;;;;;;;47.45;43.88;;;;;;;;;;10238518;28;20051;-72
2022/11/27 20:10:18;;;;;;;50.20;46.47;;;;;;;;;;10251777;28;20048;-71
2022/11/27 20:15:15;;;;;;;46.25;42.90;;;;;;;;;;10240935;28;20120;-72
2022/11/27 20:20:12;;;;;;;46.35;42.78;;;;;;;;;;10250146;28;20059;-72
2022/11/27 20:25:08;;;;;;;46.55;42.90;;;;;;;;;;10239310;28;20079;-71
2022/11/27 20:30:15;;;;;;;45.75;41.90;;;;;;;;;;10242069;28;20049;-71
2022/11/27 20:35:11;;;;;;;49.20;45.70;;;;;;;;;;10234885;28;20045;-71
2022/11/27 20:40:07;;;;;;;48.58;44.97;;;;;;;;;;10235023;28;20049;-71
2022/11/27 20:45:04;;;;;;;48.13;44.55;;;;;;;;;;10241317;28;20056;-71
2022/11/27 20:50:01;;;;;;;47.33;44.13;;;;;;;;;;10238753;28;20080;-72
2022/11/27 20:54:58;;;;;;;48.28;44.85;;;;;;;;;;10249055;28;20632;-72
2022/11/27 20:59:54;;;;;;;47.05;43.65;;;;;;;;;;10232608;28;20077;-72
2022/11/27 21:04:51;;;;;;;51.78;47.50;;;;;;;;;;10243711;28;20072;-72
2022/11/27 21:09:47;;;;;;;48.45;44.90;;;;;;;;;;10222090;28;20047;-70
2022/11/27 21:14:43;;;;;;;48.95;45.30;;;;;;;;;;10221350;28;20048;-69
2022/11/27 21:19:39;;;;;;;46.83;43.42;;;;;;;;;;10236637;28;20045;-70
2022/11/27 21:24:36;;;;;;;47.78;44.15;;;;;;;;;;10226092;28;20559;-70
2022/11/27 21:29:32;;;;;;;47.78;44.53;;;;;;;;;;10236000;28;20405;-70
2022/11/27 21:34:29;;;;;;;46.72;42.97;;;;;;;;;;10230719;28;20064;-69
2022/11/27 21:39:25;;;;;;;46.03;41.88;;;;;;;;;;10226025;28;20086;-70
2022/11/27 21:44:22;;;;;;;46.03;42.35;;;;;;;;;;10236137;28;20262;-69
2022/11/27 21:49:19;;;;;;;46.92;43.63;;;;;;;;;;10220266;28;20127;-69
2022/11/27 21:54:16;;;;;;;46.63;43.17;;;;;;;;;;10224608;28;20505;-71
2022/11/27 21:59:13;;;;;;;46.35;42.65;;;;;;;;;;10222038;28;20041;-70
2022/11/27 22:04:09;;;;;;;45.90;42.53;;;;;;;;;;10223010;28;20041;-69
2022/11/27 22:09:05;;;;;;;46.10;42.72;;;;;;;;;;10226771;28;20037;-70
2022/11/27 22:14:10;;;;;;;45.17;41.97;;;;;;;;;;10225412;28;20119;-70
2022/11/27 22:19:06;;;;;;;46.05;42.30;;;;;;;;;;10225710;28;20118;-70
2022/11/27 22:24:03;;;;;;;48.88;45.38;;;;;;;;;;10232509;28;20048;-70
2022/11/27 22:28:59;;;;;;;46.00;42.50;;;;;;;;;;10240796;28;20401;-70
2022/11/27 22:33:56;;;;;;;46.80;43.55;;;;;;;;;;10226058;28;20052;-69
2022/11/27 22:38:53;;;;;;;50.00;46.42;;;;;;;;;;10234871;28;20095;-69
2022/11/27 22:43:50;;;;;;;47.40;44.03;;;;;;;;;;10222511;28;20460;-68
2022/11/27 22:48:46;;;;;;;50.10;46.30;;;;;;;;;;10231709;28;20045;-69
2022/11/27 22:53:43;;;;;;;48.28;44.58;;;;;;;;;;10235699;28;20386;-69
2022/11/27 22:58:39;;;;;;;49.70;45.80;;;;;;;;;;10246165;28;20057;-72
2022/11/27 23:03:38;;;;;;;43.78;40.22;;;;;;;;;;10235650;28;20046;-70
2022/11/27 23:08:35;;;;;;;45.25;41.85;;;;;;;;;;10234669;28;20460;-71
2022/11/27 23:13:31;;;;;;;43.50;40.30;;;;;;;;;;10245339;28;20493;-71
2022/11/27 23:18:28;;;;;;;46.30;42.72;;;;;;;;;;10233765;28;20665;-71
2022/11/27 23:23:24;;;;;;;46.20;42.55;;;;;;;;;;10233471;28;20052;-70
2022/11/27 23:28:20;;;;;;;45.03;41.60;;;;;;;;;;10234339;28;20068;-68
2022/11/27 23:33:16;;;;;;;47.58;43.72;;;;;;;;;;10232792;28;20084;-69
2022/11/27 23:38:13;;;;;;;48.05;44.70;;;;;;;;;;10229716;28;20129;-68
2022/11/27 23:43:09;;;;;;;50.25;46.75;;;;;;;;;;10234816;28;20048;-69
2022/11/27 23:48:05;;;;;;;48.33;44.90;;;;;;;;;;10231369;28;20061;-69
2022/11/27 23:53:01;;;;;;;48.22;44.53;;;;;;;;;;10240801;28;20037;-69
2022/11/27 23:57:58;;;;;;;44.80;41.50;;;;;;;;;;10231301;28;20048;-69
